sensor_id;sensor_type;location;lat;lon;timestamp;P1;durP1;ratioP1;P2;durP2;ratioP2
76733;SDS011;65660;53.288;14.666;2022-12-18T00:04:56;40.93;;;16.17;;
76733;SDS011;65660;53.288;14.666;2022-12-18T00:09:57;48.03;;;17.07;;
76733;SDS011;65660;53.288;14.666;2022-12-18T00:14:58;44.73;;;16.50;;
76733;SDS011;65660;53.288;14.666;2022-12-18T00:19:58;44.50;;;16.53;;
76733;SDS011;65660;53.288;14.666;2022-12-18T00:24:59;39.37;;;15.83;;
76733;SDS011;65660;53.288;14.666;2022-12-18T00:29:59;45.03;;;16.70;;
76733;SDS011;65660;53.288;14.666;2022-12-18T00:35:00;38.87;;;15.93;;
76733;SDS011;65660;53.288;14.666;2022-12-18T00:40:01;44.23;;;16.37;;
76733;SDS011;65660;53.288;14.666;2022-12-18T00:45:02;40.50;;;16.73;;
76733;SDS011;65660;53.288;14.666;2022-12-18T00:50:03;41.60;;;16.87;;
76733;SDS011;65660;53.288;14.666;2022-12-18T00:55:04;44.90;;;16.53;;
76733;SDS011;65660;53.288;14.666;2022-12-18T01:00:05;38.97;;;16.37;;
76733;SDS011;65660;53.288;14.666;2022-12-18T01:05:07;39.40;;;15.33;;
76733;SDS011;65660;53.288;14.666;2022-12-18T01:10:09;36.67;;;14.67;;
76733;SDS011;65660;53.288;14.666;2022-12-18T01:15:12;34.93;;;15.57;;
76733;SDS011;65660;53.288;14.666;2022-12-18T01:20:13;33.80;;;13.97;;
76733;SDS011;65660;53.288;14.666;2022-12-18T01:25:14;34.87;;;14.37;;
76733;SDS011;65660;53.288;14.666;2022-12-18T01:30:14;39.07;;;14.90;;
76733;SDS011;65660;53.288;14.666;2022-12-18T01:35:15;37.73;;;14.83;;
76733;SDS011;65660;53.288;14.666;2022-12-18T01:40:16;36.33;;;14.37;;
76733;SDS011;65660;53.288;14.666;2022-12-18T01:55:26;32.87;;;13.07;;
76733;SDS011;65660;53.288;14.666;2022-12-18T02:00:29;35.67;;;13.87;;
76733;SDS011;65660;53.288;14.666;2022-12-18T02:16:01;35.23;;;13.90;;
76733;SDS011;65660;53.288;14.666;2022-12-18T02:21:12;34.03;;;13.63;;
76733;SDS011;65660;53.288;14.666;2022-12-18T02:32:09;28.47;;;11.77;;
76733;SDS011;65660;53.288;14.666;2022-12-18T02:37:04;23.03;;;11.40;;
76733;SDS011;65660;53.288;14.666;2022-12-18T02:42:07;23.93;;;10.90;;
76733;SDS011;65660;53.288;14.666;2022-12-18T02:47:09;30.47;;;12.87;;
76733;SDS011;65660;53.288;14.666;2022-12-18T02:57:49;28.60;;;12.60;;
76733;SDS011;65660;53.288;14.666;2022-12-18T03:03:15;32.40;;;14.33;;
76733;SDS011;65660;53.288;14.666;2022-12-18T03:08:20;37.20;;;14.27;;
76733;SDS011;65660;53.288;14.666;2022-12-18T03:13:25;32.90;;;13.70;;
76733;SDS011;65660;53.288;14.666;2022-12-18T03:18:36;36.47;;;14.03;;
76733;SDS011;65660;53.288;14.666;2022-12-18T03:23:49;40.83;;;15.73;;
76733;SDS011;65660;53.288;14.666;2022-12-18T03:28:51;34.27;;;14.77;;
76733;SDS011;65660;53.288;14.666;2022-12-18T03:34:01;38.83;;;15.17;;
76733;SDS011;65660;53.288;14.666;2022-12-18T03:39:04;33.40;;;14.13;;
76733;SDS011;65660;53.288;14.666;2022-12-18T03:44:10;44.03;;;15.97;;
76733;SDS011;65660;53.288;14.666;2022-12-18T03:54:48;43.20;;;16.63;;
76733;SDS011;65660;53.288;14.666;2022-12-18T03:59:49;50.70;;;17.43;;
76733;SDS011;65660;53.288;14.666;2022-12-18T04:04:53;42.80;;;17.03;;
76733;SDS011;65660;53.288;14.666;2022-12-18T04:09:54;52.53;;;18.20;;
76733;SDS011;65660;53.288;14.666;2022-12-18T04:14:56;46.10;;;17.53;;
76733;SDS011;65660;53.288;14.666;2022-12-18T04:19:57;35.83;;;15.37;;
76733;SDS011;65660;53.288;14.666;2022-12-18T04:24:58;35.37;;;15.97;;
76733;SDS011;65660;53.288;14.666;2022-12-18T04:29:58;45.10;;;18.13;;
76733;SDS011;65660;53.288;14.666;2022-12-18T04:34:59;38.60;;;15.27;;
76733;SDS011;65660;53.288;14.666;2022-12-18T04:39:59;37.30;;;15.77;;
76733;SDS011;65660;53.288;14.666;2022-12-18T04:45:00;35.60;;;15.67;;
76733;SDS011;65660;53.288;14.666;2022-12-18T04:50:00;35.83;;;14.80;;
76733;SDS011;65660;53.288;14.666;2022-12-18T04:55:01;37.67;;;15.03;;
76733;SDS011;65660;53.288;14.666;2022-12-18T05:00:02;35.90;;;14.23;;
76733;SDS011;65660;53.288;14.666;2022-12-18T05:05:03;38.23;;;14.83;;
76733;SDS011;65660;53.288;14.666;2022-12-18T05:10:04;32.63;;;12.90;;
76733;SDS011;65660;53.288;14.666;2022-12-18T05:15:05;27.13;;;12.63;;
76733;SDS011;65660;53.288;14.666;2022-12-18T05:20:06;36.13;;;14.83;;
76733;SDS011;65660;53.288;14.666;2022-12-18T05:25:08;26.87;;;12.63;;
76733;SDS011;65660;53.288;14.666;2022-12-18T05:30:09;27.93;;;12.80;;
76733;SDS011;65660;53.288;14.666;2022-12-18T05:35:10;26.13;;;12.47;;
76733;SDS011;65660;53.288;14.666;2022-12-18T05:40:11;26.30;;;12.40;;
76733;SDS011;65660;53.288;14.666;2022-12-18T05:45:12;31.63;;;14.00;;
76733;SDS011;65660;53.288;14.666;2022-12-18T05:50:12;26.53;;;13.10;;
76733;SDS011;65660;53.288;14.666;2022-12-18T05:55:13;26.77;;;12.80;;
76733;SDS011;65660;53.288;14.666;2022-12-18T06:00:14;20.70;;;10.87;;
76733;SDS011;65660;53.288;14.666;2022-12-18T06:05:15;28.73;;;12.73;;
76733;SDS011;65660;53.288;14.666;2022-12-18T06:10:16;25.93;;;11.43;;
76733;SDS011;65660;53.288;14.666;2022-12-18T06:15:16;22.60;;;10.80;;
76733;SDS011;65660;53.288;14.666;2022-12-18T06:20:17;24.43;;;11.77;;
76733;SDS011;65660;53.288;14.666;2022-12-18T06:25:18;24.67;;;11.93;;
76733;SDS011;65660;53.288;14.666;2022-12-18T06:30:19;26.37;;;13.27;;
76733;SDS011;65660;53.288;14.666;2022-12-18T06:35:19;26.00;;;14.27;;
76733;SDS011;65660;53.288;14.666;2022-12-18T06:40:20;28.17;;;12.77;;
76733;SDS011;65660;53.288;14.666;2022-12-18T06:45:21;28.27;;;12.77;;
76733;SDS011;65660;53.288;14.666;2022-12-18T06:50:21;29.90;;;13.33;;
76733;SDS011;65660;53.288;14.666;2022-12-18T06:55:22;25.50;;;12.77;;
76733;SDS011;65660;53.288;14.666;2022-12-18T07:00:22;25.13;;;11.87;;
76733;SDS011;65660;53.288;14.666;2022-12-18T07:05:23;25.80;;;11.90;;
76733;SDS011;65660;53.288;14.666;2022-12-18T07:10:23;25.33;;;12.03;;
76733;SDS011;65660;53.288;14.666;2022-12-18T07:15:24;29.63;;;14.47;;
76733;SDS011;65660;53.288;14.666;2022-12-18T07:20:25;33.20;;;14.60;;
76733;SDS011;65660;53.288;14.666;2022-12-18T07:25:25;31.00;;;12.80;;
76733;SDS011;65660;53.288;14.666;2022-12-18T07:30:26;31.43;;;13.43;;
76733;SDS011;65660;53.288;14.666;2022-12-18T07:35:26;37.43;;;16.07;;
76733;SDS011;65660;53.288;14.666;2022-12-18T07:40:27;45.97;;;17.70;;
76733;SDS011;65660;53.288;14.666;2022-12-18T07:45:29;35.83;;;15.53;;
76733;SDS011;65660;53.288;14.666;2022-12-18T07:50:30;39.43;;;15.93;;
76733;SDS011;65660;53.288;14.666;2022-12-18T07:55:31;38.07;;;15.60;;
76733;SDS011;65660;53.288;14.666;2022-12-18T08:00:40;38.33;;;17.03;;
76733;SDS011;65660;53.288;14.666;2022-12-18T08:05:40;36.70;;;16.80;;
76733;SDS011;65660;53.288;14.666;2022-12-18T08:10:41;34.53;;;15.50;;
76733;SDS011;65660;53.288;14.666;2022-12-18T08:15:41;34.93;;;14.87;;
76733;SDS011;65660;53.288;14.666;2022-12-18T08:20:42;34.80;;;14.90;;
76733;SDS011;65660;53.288;14.666;2022-12-18T08:25:42;37.13;;;15.80;;
76733;SDS011;65660;53.288;14.666;2022-12-18T08:30:43;35.00;;;14.87;;
76733;SDS011;65660;53.288;14.666;2022-12-18T08:35:44;35.77;;;15.53;;
76733;SDS011;65660;53.288;14.666;2022-12-18T08:40:44;36.13;;;16.10;;
76733;SDS011;65660;53.288;14.666;2022-12-18T08:45:45;39.27;;;15.73;;
76733;SDS011;65660;53.288;14.666;2022-12-18T08:50:55;33.00;;;14.53;;
76733;SDS011;65660;53.288;14.666;2022-12-18T08:55:59;34.87;;;15.53;;
76733;SDS011;65660;53.288;14.666;2022-12-18T09:01:00;30.60;;;13.57;;
76733;SDS011;65660;53.288;14.666;2022-12-18T09:06:02;29.60;;;13.40;;
76733;SDS011;65660;53.288;14.666;2022-12-18T09:11:02;30.90;;;15.40;;
76733;SDS011;65660;53.288;14.666;2022-12-18T09:16:03;30.53;;;14.80;;
76733;SDS011;65660;53.288;14.666;2022-12-18T09:21:14;34.77;;;14.90;;
76733;SDS011;65660;53.288;14.666;2022-12-18T09:26:16;36.10;;;14.73;;
76733;SDS011;65660;53.288;14.666;2022-12-18T09:31:18;30.00;;;15.00;;
76733;SDS011;65660;53.288;14.666;2022-12-18T09:36:21;31.27;;;14.70;;
76733;SDS011;65660;53.288;14.666;2022-12-18T09:41:30;29.57;;;14.43;;
76733;SDS011;65660;53.288;14.666;2022-12-18T09:46:38;30.90;;;13.83;;
76733;SDS011;65660;53.288;14.666;2022-12-18T09:51:49;33.70;;;14.50;;
76733;SDS011;65660;53.288;14.666;2022-12-18T09:56:52;31.40;;;15.60;;
76733;SDS011;65660;53.288;14.666;2022-12-18T10:01:52;32.33;;;14.73;;
76733;SDS011;65660;53.288;14.666;2022-12-18T10:12:16;35.50;;;16.07;;
76733;SDS011;65660;53.288;14.666;2022-12-18T10:17:28;33.53;;;15.97;;
76733;SDS011;65660;53.288;14.666;2022-12-18T10:22:54;34.80;;;15.47;;
76733;SDS011;65660;53.288;14.666;2022-12-18T10:28:17;38.07;;;16.40;;
76733;SDS011;65660;53.288;14.666;2022-12-18T10:33:20;33.70;;;15.27;;
76733;SDS011;65660;53.288;14.666;2022-12-18T10:38:24;33.27;;;15.90;;
76733;SDS011;65660;53.288;14.666;2022-12-18T10:54:22;36.07;;;16.03;;
76733;SDS011;65660;53.288;14.666;2022-12-18T10:59:17;36.77;;;17.00;;
76733;SDS011;65660;53.288;14.666;2022-12-18T11:04:19;31.33;;;16.10;;
76733;SDS011;65660;53.288;14.666;2022-12-18T11:09:23;35.87;;;17.13;;
76733;SDS011;65660;53.288;14.666;2022-12-18T11:14:34;32.57;;;15.23;;
76733;SDS011;65660;53.288;14.666;2022-12-18T11:19:43;32.90;;;16.17;;
76733;SDS011;65660;53.288;14.666;2022-12-18T11:24:49;39.17;;;19.20;;
76733;SDS011;65660;53.288;14.666;2022-12-18T11:30:07;34.27;;;15.97;;
76733;SDS011;65660;53.288;14.666;2022-12-18T11:40:22;31.07;;;15.03;;
76733;SDS011;65660;53.288;14.666;2022-12-18T11:45:31;33.77;;;17.13;;
76733;SDS011;65660;53.288;14.666;2022-12-18T11:56:16;31.23;;;13.33;;
76733;SDS011;65660;53.288;14.666;2022-12-18T12:01:52;29.27;;;14.70;;
76733;SDS011;65660;53.288;14.666;2022-12-18T12:07:12;29.17;;;14.50;;
76733;SDS011;65660;53.288;14.666;2022-12-18T12:12:23;35.87;;;16.30;;
76733;SDS011;65660;53.288;14.666;2022-12-18T12:28:03;30.83;;;15.53;;
76733;SDS011;65660;53.288;14.666;2022-12-18T12:38:23;37.47;;;18.33;;
76733;SDS011;65660;53.288;14.666;2022-12-18T12:43:41;35.47;;;17.23;;
76733;SDS011;65660;53.288;14.666;2022-12-18T12:48:50;37.57;;;17.30;;
76733;SDS011;65660;53.288;14.666;2022-12-18T12:53:54;33.73;;;16.60;;
76733;SDS011;65660;53.288;14.666;2022-12-18T12:58:58;34.10;;;16.37;;
76733;SDS011;65660;53.288;14.666;2022-12-18T13:25:56;32.93;;;15.97;;
76733;SDS011;65660;53.288;14.666;2022-12-18T13:36:40;31.43;;;14.60;;
76733;SDS011;65660;53.288;14.666;2022-12-18T13:47:49;25.50;;;13.40;;
76733;SDS011;65660;53.288;14.666;2022-12-18T13:52:50;27.33;;;14.00;;
76733;SDS011;65660;53.288;14.666;2022-12-18T13:58:02;25.17;;;13.50;;
76733;SDS011;65660;53.288;14.666;2022-12-18T14:03:15;30.93;;;14.57;;
76733;SDS011;65660;53.288;14.666;2022-12-18T14:08:17;34.40;;;16.97;;
76733;SDS011;65660;53.288;14.666;2022-12-18T14:18:33;34.33;;;16.13;;
76733;SDS011;65660;53.288;14.666;2022-12-18T14:23:49;35.13;;;16.67;;
76733;SDS011;65660;53.288;14.666;2022-12-18T14:29:20;36.73;;;17.47;;
76733;SDS011;65660;53.288;14.666;2022-12-18T14:34:28;38.83;;;17.30;;
76733;SDS011;65660;53.288;14.666;2022-12-18T14:39:32;37.17;;;17.07;;
76733;SDS011;65660;53.288;14.666;2022-12-18T14:44:42;36.47;;;16.73;;
76733;SDS011;65660;53.288;14.666;2022-12-18T14:49:43;36.03;;;16.97;;
76733;SDS011;65660;53.288;14.666;2022-12-18T14:54:45;34.30;;;16.67;;
76733;SDS011;65660;53.288;14.666;2022-12-18T14:59:46;40.20;;;18.50;;
76733;SDS011;65660;53.288;14.666;2022-12-18T15:04:47;38.57;;;18.80;;
76733;SDS011;65660;53.288;14.666;2022-12-18T15:20:39;41.27;;;18.70;;
76733;SDS011;65660;53.288;14.666;2022-12-18T15:25:41;41.73;;;18.67;;
76733;SDS011;65660;53.288;14.666;2022-12-18T15:31:24;41.27;;;18.77;;
76733;SDS011;65660;53.288;14.666;2022-12-18T15:36:12;40.73;;;17.90;;
76733;SDS011;65660;53.288;14.666;2022-12-18T15:41:21;34.97;;;17.23;;
76733;SDS011;65660;53.288;14.666;2022-12-18T15:46:22;38.67;;;17.73;;
76733;SDS011;65660;53.288;14.666;2022-12-18T15:51:25;38.80;;;17.43;;
76733;SDS011;65660;53.288;14.666;2022-12-18T15:56:28;39.33;;;18.80;;
76733;SDS011;65660;53.288;14.666;2022-12-18T16:01:29;33.83;;;17.53;;
76733;SDS011;65660;53.288;14.666;2022-12-18T16:06:30;31.87;;;14.70;;
76733;SDS011;65660;53.288;14.666;2022-12-18T16:11:32;28.57;;;14.47;;
76733;SDS011;65660;53.288;14.666;2022-12-18T16:16:33;26.57;;;13.43;;
76733;SDS011;65660;53.288;14.666;2022-12-18T16:21:34;29.57;;;14.60;;
76733;SDS011;65660;53.288;14.666;2022-12-18T16:26:35;30.43;;;14.77;;
76733;SDS011;65660;53.288;14.666;2022-12-18T16:31:36;28.27;;;14.90;;
76733;SDS011;65660;53.288;14.666;2022-12-18T16:36:36;31.30;;;14.10;;
76733;SDS011;65660;53.288;14.666;2022-12-18T16:41:37;31.43;;;14.00;;
76733;SDS011;65660;53.288;14.666;2022-12-18T16:46:38;30.00;;;14.80;;
76733;SDS011;65660;53.288;14.666;2022-12-18T16:51:39;31.00;;;14.37;;
76733;SDS011;65660;53.288;14.666;2022-12-18T16:56:40;33.23;;;15.03;;
76733;SDS011;65660;53.288;14.666;2022-12-18T17:01:40;33.17;;;15.53;;
76733;SDS011;65660;53.288;14.666;2022-12-18T17:06:42;29.93;;;15.63;;
76733;SDS011;65660;53.288;14.666;2022-12-18T17:11:44;31.73;;;15.77;;
76733;SDS011;65660;53.288;14.666;2022-12-18T17:16:45;36.17;;;16.43;;
76733;SDS011;65660;53.288;14.666;2022-12-18T17:21:49;32.97;;;16.47;;
76733;SDS011;65660;53.288;14.666;2022-12-18T17:26:50;32.23;;;15.83;;
76733;SDS011;65660;53.288;14.666;2022-12-18T17:31:50;35.70;;;16.40;;
76733;SDS011;65660;53.288;14.666;2022-12-18T17:36:51;41.27;;;18.07;;
76733;SDS011;65660;53.288;14.666;2022-12-18T17:41:52;40.83;;;18.53;;
76733;SDS011;65660;53.288;14.666;2022-12-18T17:46:52;37.70;;;18.27;;
76733;SDS011;65660;53.288;14.666;2022-12-18T17:51:53;44.73;;;19.50;;
76733;SDS011;65660;53.288;14.666;2022-12-18T17:56:53;42.00;;;19.40;;
76733;SDS011;65660;53.288;14.666;2022-12-18T18:01:55;46.63;;;20.77;;
76733;SDS011;65660;53.288;14.666;2022-12-18T18:06:56;49.23;;;20.67;;
76733;SDS011;65660;53.288;14.666;2022-12-18T18:11:56;43.57;;;19.27;;
76733;SDS011;65660;53.288;14.666;2022-12-18T18:16:57;40.73;;;18.37;;
76733;SDS011;65660;53.288;14.666;2022-12-18T18:22:01;42.50;;;18.87;;
76733;SDS011;65660;53.288;14.666;2022-12-18T18:27:02;40.37;;;18.47;;
76733;SDS011;65660;53.288;14.666;2022-12-18T18:32:03;45.57;;;21.30;;
76733;SDS011;65660;53.288;14.666;2022-12-18T18:43:00;45.40;;;21.13;;
76733;SDS011;65660;53.288;14.666;2022-12-18T18:48:01;48.70;;;22.67;;
76733;SDS011;65660;53.288;14.666;2022-12-18T18:53:01;49.13;;;21.90;;
76733;SDS011;65660;53.288;14.666;2022-12-18T18:58:08;49.10;;;24.30;;
76733;SDS011;65660;53.288;14.666;2022-12-18T19:03:11;50.47;;;23.40;;
76733;SDS011;65660;53.288;14.666;2022-12-18T19:08:13;53.17;;;23.10;;
76733;SDS011;65660;53.288;14.666;2022-12-18T19:13:13;48.97;;;22.83;;
76733;SDS011;65660;53.288;14.666;2022-12-18T19:18:14;53.50;;;23.00;;
76733;SDS011;65660;53.288;14.666;2022-12-18T19:23:15;49.97;;;23.87;;
76733;SDS011;65660;53.288;14.666;2022-12-18T19:28:18;53.67;;;24.63;;
76733;SDS011;65660;53.288;14.666;2022-12-18T19:33:21;61.17;;;28.70;;
76733;SDS011;65660;53.288;14.666;2022-12-18T19:38:21;56.27;;;25.83;;
76733;SDS011;65660;53.288;14.666;2022-12-18T19:43:22;53.00;;;23.20;;
76733;SDS011;65660;53.288;14.666;2022-12-18T19:48:23;53.90;;;23.50;;
76733;SDS011;65660;53.288;14.666;2022-12-18T19:53:23;54.53;;;24.93;;
76733;SDS011;65660;53.288;14.666;2022-12-18T19:58:24;55.83;;;24.00;;
76733;SDS011;65660;53.288;14.666;2022-12-18T20:03:24;58.20;;;24.70;;
76733;SDS011;65660;53.288;14.666;2022-12-18T20:08:25;57.37;;;25.97;;
76733;SDS011;65660;53.288;14.666;2022-12-18T20:13:25;60.93;;;26.87;;
76733;SDS011;65660;53.288;14.666;2022-12-18T20:18:26;58.13;;;26.13;;
76733;SDS011;65660;53.288;14.666;2022-12-18T20:23:26;60.63;;;27.97;;
76733;SDS011;65660;53.288;14.666;2022-12-18T20:28:27;66.20;;;29.17;;
76733;SDS011;65660;53.288;14.666;2022-12-18T20:33:28;66.47;;;31.73;;
76733;SDS011;65660;53.288;14.666;2022-12-18T20:38:29;67.57;;;29.37;;
76733;SDS011;65660;53.288;14.666;2022-12-18T20:43:29;68.40;;;28.47;;
76733;SDS011;65660;53.288;14.666;2022-12-18T20:48:30;66.13;;;27.90;;
76733;SDS011;65660;53.288;14.666;2022-12-18T20:53:31;70.10;;;28.20;;
76733;SDS011;65660;53.288;14.666;2022-12-18T20:58:32;67.27;;;27.80;;
76733;SDS011;65660;53.288;14.666;2022-12-18T21:03:37;70.63;;;30.07;;
76733;SDS011;65660;53.288;14.666;2022-12-18T21:08:41;78.27;;;31.27;;
76733;SDS011;65660;53.288;14.666;2022-12-18T21:13:43;71.87;;;29.70;;
76733;SDS011;65660;53.288;14.666;2022-12-18T21:18:44;76.73;;;30.77;;
76733;SDS011;65660;53.288;14.666;2022-12-18T21:23:44;71.07;;;30.33;;
76733;SDS011;65660;53.288;14.666;2022-12-18T21:28:46;74.80;;;32.00;;
76733;SDS011;65660;53.288;14.666;2022-12-18T21:33:48;74.67;;;31.50;;
76733;SDS011;65660;53.288;14.666;2022-12-18T21:38:50;74.83;;;32.30;;
76733;SDS011;65660;53.288;14.666;2022-12-18T21:43:52;70.17;;;33.43;;
76733;SDS011;65660;53.288;14.666;2022-12-18T21:48:53;80.67;;;32.00;;
76733;SDS011;65660;53.288;14.666;2022-12-18T21:53:54;71.67;;;32.10;;
76733;SDS011;65660;53.288;14.666;2022-12-18T21:58:55;74.57;;;31.57;;
76733;SDS011;65660;53.288;14.666;2022-12-18T22:03:56;72.57;;;32.00;;
76733;SDS011;65660;53.288;14.666;2022-12-18T22:08:58;70.73;;;32.37;;
76733;SDS011;65660;53.288;14.666;2022-12-18T22:13:58;72.47;;;30.13;;
76733;SDS011;65660;53.288;14.666;2022-12-18T22:18:59;71.27;;;28.57;;
76733;SDS011;65660;53.288;14.666;2022-12-18T22:24:04;73.20;;;29.80;;
76733;SDS011;65660;53.288;14.666;2022-12-18T22:29:18;71.27;;;27.87;;
76733;SDS011;65660;53.288;14.666;2022-12-18T22:34:26;74.40;;;28.27;;
76733;SDS011;65660;53.288;14.666;2022-12-18T22:39:30;78.60;;;30.87;;
76733;SDS011;65660;53.288;14.666;2022-12-18T22:44:31;67.30;;;28.30;;
76733;SDS011;65660;53.288;14.666;2022-12-18T22:49:31;66.93;;;28.47;;
76733;SDS011;65660;53.288;14.666;2022-12-18T22:54:32;70.43;;;28.87;;
76733;SDS011;65660;53.288;14.666;2022-12-18T22:59:33;67.63;;;28.97;;
76733;SDS011;65660;53.288;14.666;2022-12-18T23:04:33;69.17;;;27.97;;
76733;SDS011;65660;53.288;14.666;2022-12-18T23:09:34;67.27;;;28.90;;
76733;SDS011;65660;53.288;14.666;2022-12-18T23:14:34;67.03;;;27.43;;
76733;SDS011;65660;53.288;14.666;2022-12-18T23:19:35;68.13;;;27.43;;
76733;SDS011;65660;53.288;14.666;2022-12-18T23:24:35;63.57;;;26.93;;
76733;SDS011;65660;53.288;14.666;2022-12-18T23:29:36;71.40;;;28.03;;
76733;SDS011;65660;53.288;14.666;2022-12-18T23:34:36;69.00;;;27.70;;
76733;SDS011;65660;53.288;14.666;2022-12-18T23:39:37;73.30;;;27.87;;
76733;SDS011;65660;53.288;14.666;2022-12-18T23:44:39;74.63;;;29.17;;
76733;SDS011;65660;53.288;14.666;2022-12-18T23:49:43;68.83;;;28.53;;
76733;SDS011;65660;53.288;14.666;2022-12-18T23:54:48;74.80;;;28.50;;
76733;SDS011;65660;53.288;14.666;2022-12-18T23:59:51;68.10;;;27.53;;
